CheckWX is a tool to help pilots better visualize weather data.  It is not intended as a substitute for an official pre-flight weather briefing.

17:39:24 UTC

ENNA METAR
Banak Airport
Lakselv, Norway
Current

19 mins ago

ENNA 211720Z VRB03KT CAVOK 18/15 Q1012 RMK WIND 1800FT 16021KT
Observed
Jul-21 @ 17:20 UTC
Wind
  • Variable at 3 KTS
Visibility
10,000+ meters
Flight Rules
VFR
Cloud Levels
  • Clear skies
Temperature
18°C / 64°F
Dewpoint
15°C / 59°F
Humidity
83%
Altimeter
29.88" Hg
Pressure
1011.92 hPa
Previous

49 mins ago

ENNA 211650Z 00000KT CAVOK 19/15 Q1012 RMK WIND 1800FT 16020KT
Observed
Jul-21 @ 16:50 UTC
Visibility
10,000+ meters
Flight Rules
VFR
Cloud Levels
  • Clear skies
Temperature
19°C / 66°F
Dewpoint
15°C / 59°F
Humidity
78%
Altimeter
29.88" Hg
Pressure
1011.92 hPa
Previous

1 hour ago

ENNA 211620Z 23005KT 190V260 CAVOK 17/14 Q1012 RMK WIND 1800FT 17017KT
Observed
Jul-21 @ 16:20 UTC
Wind
  • 230° at 5 KTS
Visibility
10,000+ meters
Flight Rules
VFR
Cloud Levels
  • Clear skies
Temperature
17°C / 63°F
Dewpoint
14°C / 57°F
Humidity
83%
Altimeter
29.88" Hg
Pressure
1011.92 hPa